createdAt,value
2023-08-29T00:01:05.740Z,98391.19
2023-08-29T00:04:07.987Z,98383.94
2023-08-29T00:07:10.226Z,98402.13
2023-08-29T00:10:12.642Z,98400.25
2023-08-29T00:13:14.744Z,98401.72
2023-08-29T00:16:17.944Z,98396.97
2023-08-29T00:19:22.616Z,98401.53
2023-08-29T00:22:24.824Z,98390.56
2023-08-29T00:25:26.891Z,98378.16
2023-08-29T00:28:28.997Z,98409.78
2023-08-29T00:31:31.158Z,98419.72
2023-08-29T00:34:33.293Z,98420.78
2023-08-29T00:37:35.399Z,98418.28
2023-08-29T00:40:37.562Z,98414.97
2023-08-29T00:43:39.898Z,98421.59
2023-08-29T00:46:42.655Z,98391.38
2023-08-29T00:49:45.016Z,98376.47
2023-08-29T00:52:48.185Z,98363.03
2023-08-29T00:55:50.904Z,98357.41
2023-08-29T00:58:54.186Z,98359.91
2023-08-29T01:01:56.481Z,98367.12
2023-08-29T01:04:59.272Z,98377.00
2023-08-29T01:08:02.587Z,98383.41
2023-08-29T01:11:07.713Z,98382.34
2023-08-29T01:14:15.619Z,98375.97
2023-08-29T01:17:27.173Z,98381.78
2023-08-29T01:20:32.065Z,98385.47
2023-08-29T01:23:44.415Z,98395.38
2023-08-29T01:26:47.709Z,98406.78
2023-08-29T01:29:50.397Z,98403.25
2023-08-29T01:32:53.502Z,98411.09
2023-08-29T01:35:55.707Z,98390.78
2023-08-29T01:38:57.780Z,98409.03
2023-08-29T01:41:59.845Z,98419.34
2023-08-29T01:45:02.035Z,98422.63
2023-08-29T01:48:05.647Z,98435.66
2023-08-29T01:51:08.315Z,98446.78
2023-08-29T01:54:10.641Z,98445.31
2023-08-29T01:57:15.413Z,98442.00
2023-08-29T02:00:17.879Z,98434.12
2023-08-29T02:03:23.071Z,98425.88
2023-08-29T02:06:25.171Z,98414.66
2023-08-29T02:09:27.292Z,98414.06
2023-08-29T02:12:29.409Z,98414.66
2023-08-29T02:15:31.547Z,98412.44
2023-08-29T02:18:33.633Z,98416.13
2023-08-29T02:21:35.775Z,98417.38
2023-08-29T02:24:37.834Z,98421.72
2023-08-29T02:27:39.995Z,98430.59
2023-08-29T02:30:42.209Z,98420.69
2023-08-29T02:33:44.594Z,98418.66
2023-08-29T02:36:46.766Z,98411.00
2023-08-29T02:39:48.844Z,98411.59
2023-08-29T02:42:50.962Z,98402.31
2023-08-29T02:45:52.967Z,98401.91
2023-08-29T02:48:55.092Z,98407.66
2023-08-29T02:51:58.059Z,98381.66
2023-08-29T02:55:00.336Z,98379.38
2023-08-29T02:58:02.493Z,98378.97
2023-08-29T03:01:07.574Z,98368.44
2023-08-29T03:04:09.762Z,98375.84
2023-08-29T03:07:11.870Z,98392.19
2023-08-29T03:10:13.944Z,98385.78
2023-08-29T03:13:16.164Z,98385.16
2023-08-29T03:16:20.957Z,98381.88
2023-08-29T03:19:23.086Z,98371.53
2023-08-29T03:22:25.229Z,98377.09
2023-08-29T03:25:27.359Z,98389.50
2023-08-29T03:28:29.640Z,98382.03
2023-08-29T03:31:31.871Z,98378.72
2023-08-29T03:34:34.756Z,98368.00
2023-08-29T03:37:36.933Z,98358.06
2023-08-29T03:40:38.987Z,98342.75
2023-08-29T03:43:41.084Z,98356.16
2023-08-29T03:46:43.306Z,98351.19
2023-08-29T03:49:45.384Z,98336.53
2023-08-29T03:52:47.476Z,98339.59
2023-08-29T03:55:49.522Z,98341.44
2023-08-29T03:58:51.632Z,98343.09
2023-08-29T04:01:53.684Z,98356.50
2023-08-29T04:05:12.298Z,98363.13
2023-08-29T04:08:14.715Z,98360.03
2023-08-29T04:11:16.797Z,98361.47
2023-08-29T04:14:18.857Z,98351.75
2023-08-29T04:17:20.938Z,98356.09
2023-08-29T04:20:24.270Z,98370.78
2023-08-29T04:23:27.205Z,98365.00
2023-08-29T04:26:30.052Z,98362.31
2023-08-29T04:29:32.179Z,98358.59
2023-08-29T04:32:35.708Z,98347.25
2023-08-29T04:35:37.861Z,98355.50
2023-08-29T04:38:40.040Z,98356.25
2023-08-29T04:41:42.135Z,98362.00
2023-08-29T04:44:46.484Z,98355.91
2023-08-29T04:47:50.287Z,98360.22
2023-08-29T04:50:52.383Z,98351.97
2023-08-29T04:53:54.455Z,98349.69
2023-08-29T04:56:56.649Z,98347.37
2023-08-29T04:59:58.813Z,98354.00
2023-08-29T05:03:01.132Z,98347.81
2023-08-29T05:06:03.506Z,98337.72
2023-08-29T05:09:10.206Z,98335.47
2023-08-29T05:12:12.356Z,98337.91
2023-08-29T05:15:14.573Z,98339.72
2023-08-29T05:18:16.774Z,98338.25
2023-08-29T05:21:19.043Z,98341.97
2023-08-29T05:24:21.179Z,98350.31
2023-08-29T05:27:23.293Z,98351.16
2023-08-29T05:30:25.553Z,98354.91
2023-08-29T05:33:27.766Z,98363.16
2023-08-29T05:36:29.872Z,98372.25
2023-08-29T05:39:32.054Z,98378.34
2023-08-29T05:42:34.213Z,98380.38
2023-08-29T05:45:36.484Z,98393.63
2023-08-29T05:48:38.894Z,98395.47
2023-08-29T05:51:41.088Z,98401.94
2023-08-29T05:54:44.576Z,98400.97
2023-08-29T05:57:46.710Z,98425.50
2023-08-29T06:00:49.753Z,98418.09
2023-08-29T06:03:52.005Z,98416.91
2023-08-29T06:06:55.455Z,98419.06
2023-08-29T06:09:57.537Z,98429.41
2023-08-29T06:12:59.886Z,98431.06
2023-08-29T06:16:02.003Z,98429.69
2023-08-29T06:19:04.019Z,98426.25
2023-08-29T06:22:06.219Z,98436.16
2023-08-29T06:25:08.973Z,98446.13
2023-08-29T06:28:11.127Z,98445.59
2023-08-29T06:31:13.243Z,98441.56
2023-08-29T06:34:15.395Z,98446.16
2023-08-29T06:37:17.516Z,98440.41
2023-08-29T06:40:19.673Z,98427.38
2023-08-29T06:43:21.909Z,98431.16
2023-08-29T06:46:24.437Z,98431.13
2023-08-29T06:49:26.659Z,98436.28
2023-08-29T06:52:28.820Z,98443.09
2023-08-29T06:55:33.979Z,98440.59
2023-08-29T06:58:36.180Z,98437.66
2023-08-29T07:01:41.470Z,98439.44
2023-08-29T07:04:43.658Z,98443.88
2023-08-29T07:07:45.680Z,98429.69
2023-08-29T07:10:49.509Z,98433.13
2023-08-29T07:13:51.879Z,98433.69
2023-08-29T07:20:09.960Z,98433.22
2023-08-29T07:23:12.179Z,98426.06
2023-08-29T07:26:14.254Z,98433.13
2023-08-29T07:29:16.434Z,98427.41
2023-08-29T07:32:19.035Z,98423.69
2023-08-29T07:35:21.104Z,98427.47
2023-08-29T07:38:23.308Z,98423.22
2023-08-29T07:41:25.456Z,98415.22
2023-08-29T07:44:27.679Z,98412.47
2023-08-29T07:47:29.920Z,98418.69
2023-08-29T07:50:32.153Z,98429.66
2023-08-29T07:53:34.260Z,98436.03
2023-08-29T07:56:36.354Z,98434.84
2023-08-29T07:59:38.501Z,98444.09
2023-08-29T08:02:40.838Z,98445.87
2023-08-29T08:05:43.010Z,98454.47
2023-08-29T08:08:45.104Z,98458.25
2023-08-29T08:11:47.808Z,98464.16
2023-08-29T08:14:51.916Z,98467.44
2023-08-29T08:17:54.040Z,98464.19
2023-08-29T08:20:56.328Z,98465.00
2023-08-29T08:23:58.345Z,98472.00
2023-08-29T08:27:00.519Z,98462.84
2023-08-29T08:30:03.071Z,98468.84
2023-08-29T08:33:06.397Z,98463.13
2023-08-29T08:36:09.125Z,98469.59
2023-08-29T08:39:11.651Z,98473.84
2023-08-29T08:42:16.404Z,98478.44
2023-08-29T08:45:20.607Z,98475.56
2023-08-29T08:48:22.960Z,98474.69
2023-08-29T08:51:28.288Z,98470.66
2023-08-29T08:54:30.541Z,98472.81
2023-08-29T08:57:33.285Z,98473.50
2023-08-29T09:00:35.451Z,98466.09
2023-08-29T09:03:37.556Z,98463.97
2023-08-29T09:06:39.814Z,98462.53
2023-08-29T09:09:41.917Z,98461.16
2023-08-29T09:12:49.726Z,98465.56
2023-08-29T09:15:52.011Z,98468.84
2023-08-29T09:18:54.136Z,98464.09
2023-08-29T09:21:57.009Z,98456.44
2023-08-29T09:25:04.367Z,98448.28
2023-08-29T09:28:12.049Z,98447.88
2023-08-29T09:31:15.697Z,98453.81
2023-08-29T09:34:44.402Z,98443.44
2023-08-29T09:37:54.618Z,98435.25
2023-08-29T09:40:56.833Z,98435.84
2023-08-29T09:43:59.128Z,98433.38
2023-08-29T09:47:01.468Z,98433.97
2023-08-29T09:50:04.412Z,98433.88
2023-08-29T09:53:07.204Z,98431.81
2023-08-29T09:56:11.332Z,98438.91
2023-08-29T09:59:18.360Z,98430.31
2023-08-29T10:02:22.368Z,98424.03
2023-08-29T10:05:33.705Z,98426.66
2023-08-29T10:08:44.936Z,98420.94
2023-08-29T10:11:54.977Z,98426.91
2023-08-29T10:14:58.782Z,98431.53
2023-08-29T10:18:01.153Z,98426.69
2023-08-29T10:21:05.281Z,98422.94
2023-08-29T10:24:08.907Z,98431.28
2023-08-29T10:27:11.606Z,98437.00
2023-08-29T10:30:13.995Z,98434.84
2023-08-29T10:33:16.519Z,98446.41
2023-08-29T10:36:18.813Z,98446.41
2023-08-29T10:39:20.987Z,98442.41
2023-08-29T10:42:23.102Z,98456.00
2023-08-29T10:45:44.676Z,98436.00
2023-08-29T10:48:47.514Z,98447.81
2023-08-29T10:52:09.705Z,98431.16
2023-08-29T10:55:23.800Z,98426.94
2023-08-29T10:58:36.176Z,98424.78
2023-08-29T11:01:40.766Z,98427.78
2023-08-29T11:04:55.775Z,98428.16
2023-08-29T11:08:23.447Z,98423.34
2023-08-29T11:11:25.756Z,98426.91
2023-08-29T11:14:54.915Z,98422.53
2023-08-29T11:18:33.817Z,98411.34
2023-08-29T11:21:36.001Z,98410.19
2023-08-29T11:24:38.226Z,98416.88
2023-08-29T11:27:40.587Z,98406.84
2023-08-29T11:30:44.907Z,98412.03
2023-08-29T11:33:48.174Z,98412.41
2023-08-29T11:36:52.774Z,98413.59
2023-08-29T11:39:56.815Z,98416.41
2023-08-29T11:43:26.042Z,98421.22
2023-08-29T11:46:23.181Z,98429.03
2023-08-29T11:49:26.507Z,98426.94
2023-08-29T11:52:28.663Z,98414.25
2023-08-29T11:55:33.154Z,98408.13
2023-08-29T11:58:36.706Z,98414.47
2023-08-29T12:01:38.835Z,98417.59
2023-08-29T12:04:42.663Z,98418.72
2023-08-29T12:07:45.429Z,98415.03
2023-08-29T12:10:53.376Z,98421.06
2023-08-29T12:14:06.681Z,98419.62
2023-08-29T12:17:09.257Z,98427.50
2023-08-29T12:20:17.080Z,98435.56
2023-08-29T12:23:31.349Z,98421.31
2023-08-29T12:26:33.730Z,98424.28
2023-08-29T12:29:35.865Z,98414.22
2023-08-29T12:32:37.923Z,98423.63
2023-08-29T12:35:40.348Z,98425.75
2023-08-29T12:38:42.463Z,98431.59
2023-08-29T12:41:44.781Z,98425.34
2023-08-29T12:44:47.020Z,98430.69
2023-08-29T12:47:49.456Z,98416.25
2023-08-29T12:50:51.569Z,98417.97
2023-08-29T12:53:53.725Z,98416.81
2023-08-29T12:56:56.428Z,98418.03
2023-08-29T12:59:58.519Z,98427.66
2023-08-29T13:03:01.557Z,98411.12
2023-08-29T13:06:04.102Z,98410.44
2023-08-29T13:09:06.355Z,98410.28
2023-08-29T13:12:08.950Z,98398.00
2023-08-29T13:15:13.742Z,98393.41
2023-08-29T13:18:15.799Z,98398.66
2023-08-29T13:21:17.865Z,98395.00
2023-08-29T13:24:20.034Z,98397.41
2023-08-29T13:27:22.165Z,98408.47
2023-08-29T13:30:26.968Z,98418.25
2023-08-29T13:33:29.039Z,98420.25
2023-08-29T13:36:32.642Z,98415.31
2023-08-29T13:39:34.741Z,98422.47
2023-08-29T13:42:37.306Z,98415.47
2023-08-29T13:45:39.639Z,98403.56
2023-08-29T13:48:42.113Z,98386.66
2023-08-29T13:51:46.617Z,98362.78
2023-08-29T13:54:48.815Z,98363.50
2023-08-29T13:57:51.317Z,98363.66
2023-08-29T14:00:54.963Z,98357.28
2023-08-29T14:03:57.773Z,98359.69
2023-08-29T14:07:00.277Z,98369.28
2023-08-29T14:10:02.528Z,98357.38
2023-08-29T14:13:05.017Z,98369.53
2023-08-29T14:16:07.601Z,98385.91
2023-08-29T14:19:11.318Z,98392.56
2023-08-29T14:22:13.736Z,98402.97
2023-08-29T14:25:15.866Z,98395.28
2023-08-29T14:28:18.174Z,98399.19
2023-08-29T14:31:24.570Z,98398.06
2023-08-29T14:34:27.717Z,98406.91
2023-08-29T14:37:29.834Z,98395.59
2023-08-29T14:40:32.294Z,98385.00
2023-08-29T14:43:34.910Z,98388.38
2023-08-29T14:46:37.369Z,98416.22
2023-08-29T14:49:40.072Z,98438.16
2023-08-29T14:52:42.535Z,98445.16
2023-08-29T14:55:45.128Z,98433.47
2023-08-29T14:58:47.988Z,98438.53
2023-08-29T15:01:50.546Z,98473.56
2023-08-29T15:04:53.331Z,98531.22
2023-08-29T15:07:55.411Z,98532.25
2023-08-29T15:10:58.098Z,98583.75
2023-08-29T15:14:00.509Z,98625.41
2023-08-29T15:17:03.364Z,98636.34
2023-08-29T15:20:11.257Z,98665.66
2023-08-29T15:23:14.664Z,98700.91
2023-08-29T15:26:16.918Z,98681.69
2023-08-29T15:29:19.434Z,98629.87
2023-08-29T15:32:21.895Z,98582.91
2023-08-29T15:35:24.496Z,98572.31
2023-08-29T15:38:27.611Z,98575.81
2023-08-29T15:41:30.393Z,98577.06
2023-08-29T15:44:34.594Z,98578.00
2023-08-29T15:47:37.831Z,98585.53
2023-08-29T15:50:40.543Z,98593.38
2023-08-29T15:53:43.005Z,98607.59
2023-08-29T15:56:45.730Z,98607.91
2023-08-29T15:59:48.749Z,98611.56
2023-08-29T16:05:53.824Z,98633.44
2023-08-29T16:08:58.546Z,98641.78
2023-08-29T16:12:02.549Z,98654.81
2023-08-29T16:15:05.419Z,98666.34
2023-08-29T16:18:08.201Z,98652.31
2023-08-29T16:21:11.335Z,98681.50
2023-08-29T16:24:13.876Z,98672.03
2023-08-29T16:27:17.040Z,98679.50
2023-08-29T16:30:19.211Z,98665.03
2023-08-29T16:33:21.744Z,98657.84
2023-08-29T16:36:24.756Z,98651.37
2023-08-29T16:39:31.826Z,98643.03
2023-08-29T16:42:36.825Z,98643.72
2023-08-29T16:45:39.164Z,98642.50
2023-08-29T16:48:41.579Z,98649.16
2023-08-29T16:51:43.691Z,98661.00
2023-08-29T16:54:46.445Z,98664.16
2023-08-29T16:57:49.194Z,98650.34
2023-08-29T17:00:51.492Z,98650.53
2023-08-29T17:03:54.311Z,98633.88
2023-08-29T17:06:56.557Z,98636.34
2023-08-29T17:10:01.184Z,98645.53
2023-08-29T17:13:03.791Z,98640.03
2023-08-29T17:16:06.760Z,98630.72
2023-08-29T17:19:11.448Z,98632.38
2023-08-29T17:22:16.595Z,98613.56
2023-08-29T17:25:19.818Z,98606.72
2023-08-29T17:28:24.250Z,98607.59
2023-08-29T17:31:26.903Z,98605.75
2023-08-29T17:34:30.290Z,98610.41
2023-08-29T17:37:38.791Z,98613.09
2023-08-29T17:40:42.416Z,98618.59
2023-08-29T17:43:47.438Z,98608.06
2023-08-29T17:46:51.506Z,98619.41
2023-08-29T17:49:55.604Z,98621.25
2023-08-29T17:52:58.130Z,98626.25
2023-08-29T17:56:00.613Z,98612.09
2023-08-29T17:59:06.201Z,98598.75
2023-08-29T18:02:08.398Z,98616.44
2023-08-29T18:05:13.252Z,98621.75
2023-08-29T18:08:17.287Z,98638.75
2023-08-29T18:11:20.363Z,98628.91
2023-08-29T18:14:23.040Z,98626.75
2023-08-29T18:17:26.402Z,98637.91
2023-08-29T18:20:29.698Z,98637.09
2023-08-29T18:23:33.005Z,98642.25
2023-08-29T18:26:36.204Z,98634.41
2023-08-29T18:29:39.326Z,98625.56
2023-08-29T18:32:42.680Z,98629.09
2023-08-29T18:35:47.098Z,98637.94
2023-08-29T18:38:50.765Z,98649.25
2023-08-29T18:41:54.309Z,98651.44
2023-08-29T18:44:57.921Z,98652.06
2023-08-29T18:48:00.782Z,98654.75
2023-08-29T18:51:04.274Z,98647.53
2023-08-29T18:54:07.086Z,98645.03
2023-08-29T18:57:11.016Z,98650.19
2023-08-29T19:00:14.687Z,98661.03
2023-08-29T19:03:20.106Z,98671.38
2023-08-29T19:06:23.349Z,98666.53
2023-08-29T19:09:26.174Z,98670.34
2023-08-29T19:12:28.962Z,98672.69
2023-08-29T19:15:32.249Z,98673.69
2023-08-29T19:18:37.972Z,98675.31
2023-08-29T19:21:42.403Z,98682.69
2023-08-29T19:24:47.106Z,98674.84
2023-08-29T19:27:50.688Z,98676.00
2023-08-29T19:30:56.089Z,98685.16
2023-08-29T19:33:58.666Z,98684.69
2023-08-29T19:37:02.263Z,98683.31
2023-08-29T19:40:06.565Z,98697.06
2023-08-29T19:43:10.193Z,98705.25
2023-08-29T19:46:13.789Z,98714.53
2023-08-29T19:49:18.876Z,98718.34
2023-08-29T19:52:21.736Z,98725.66
2023-08-29T19:55:26.184Z,98722.66
2023-08-29T19:58:29.286Z,98720.00
2023-08-29T20:01:33.036Z,98724.16
2023-08-29T20:04:35.708Z,98729.69
2023-08-29T20:07:38.945Z,98737.34
2023-08-29T20:10:44.724Z,98744.72
2023-08-29T20:13:48.007Z,98743.41
2023-08-29T20:16:53.964Z,98750.75
2023-08-29T20:19:57.286Z,98755.06
2023-08-29T20:23:00.629Z,98756.91
2023-08-29T20:26:03.253Z,98765.41
2023-08-29T20:29:05.953Z,98774.09
2023-08-29T20:32:08.767Z,98769.91
2023-08-29T20:35:12.206Z,98775.41
2023-08-29T20:38:15.488Z,98772.59
2023-08-29T20:41:18.471Z,98769.75
2023-08-29T20:44:21.005Z,98777.06
2023-08-29T20:47:23.464Z,98776.72
2023-08-29T20:50:26.529Z,98781.37
2023-08-29T20:53:35.590Z,98779.16
2023-08-29T20:56:38.002Z,98788.97
2023-08-29T20:59:40.956Z,98794.94
2023-08-29T21:02:43.314Z,98791.81
2023-08-29T21:05:50.002Z,98792.97
2023-08-29T21:08:52.233Z,98786.94
2023-08-29T21:11:57.773Z,98799.50
2023-08-29T21:14:59.957Z,98787.00
2023-08-29T21:18:02.147Z,98785.97
2023-08-29T21:21:04.390Z,98797.37
2023-08-29T21:24:06.813Z,98786.63
2023-08-29T21:27:09.424Z,98771.12
2023-08-29T21:30:12.028Z,98788.47
2023-08-29T21:33:15.060Z,98778.31
2023-08-29T21:36:17.245Z,98772.66
2023-08-29T21:39:19.321Z,98771.31
2023-08-29T21:42:21.552Z,98767.97
2023-08-29T21:45:25.603Z,98769.62
2023-08-29T21:48:29.871Z,98768.94
2023-08-29T21:51:32.051Z,98780.59
2023-08-29T21:54:34.225Z,98780.47
2023-08-29T21:57:36.254Z,98784.94
2023-08-29T22:00:39.010Z,98784.94
2023-08-29T22:03:42.536Z,98795.28
2023-08-29T22:06:44.751Z,98797.94
2023-08-29T22:09:46.924Z,98799.25
2023-08-29T22:12:49.485Z,98797.28
2023-08-29T22:15:52.404Z,98803.59
2023-08-29T22:18:54.536Z,98797.59
2023-08-29T22:21:56.725Z,98808.91
2023-08-29T22:24:58.841Z,98793.94
2023-08-29T22:28:00.992Z,98790.25
2023-08-29T22:31:03.314Z,98787.59
2023-08-29T22:34:05.677Z,98798.94
2023-08-29T22:37:07.742Z,98801.22
2023-08-29T22:40:10.426Z,98798.22
2023-08-29T22:43:12.531Z,98791.72
2023-08-29T22:46:14.759Z,98799.81
2023-08-29T22:49:17.262Z,98808.50
2023-08-29T22:52:19.469Z,98808.00
2023-08-29T22:55:25.900Z,98813.47
2023-08-29T22:58:29.054Z,98809.44
2023-08-29T23:01:31.431Z,98818.09
2023-08-29T23:04:52.295Z,98818.97
2023-08-29T23:07:54.477Z,98816.44
2023-08-29T23:10:56.694Z,98823.44
2023-08-29T23:13:58.810Z,98820.94
2023-08-29T23:17:00.970Z,98820.09
2023-08-29T23:20:09.180Z,98820.94
2023-08-29T23:23:11.323Z,98826.78
2023-08-29T23:26:13.466Z,98820.09
2023-08-29T23:29:15.670Z,98816.44
2023-08-29T23:32:18.570Z,98824.12
2023-08-29T23:35:21.718Z,98821.44
2023-08-29T23:38:23.761Z,98835.78
2023-08-29T23:41:27.054Z,98836.59
2023-08-29T23:44:29.177Z,98840.94
2023-08-29T23:47:31.555Z,98835.47
2023-08-29T23:50:33.823Z,98837.13
2023-08-29T23:53:36.531Z,98837.44
2023-08-29T23:56:38.718Z,98842.63
2023-08-29T23:59:40.880Z,98842.87
